sensor_id;sensor_type;location;lat;lon;timestamp;temperature;humidity
66594;DHT22;53450;42.584;23.366;2023-03-01T00:02:13;4.49;86.73
66594;DHT22;53450;42.584;23.366;2023-03-01T00:04:38;4.44;86.60
66594;DHT22;53450;42.584;23.366;2023-03-01T00:07:04;4.46;86.48
66594;DHT22;53450;42.584;23.366;2023-03-01T00:09:29;4.44;86.38
66594;DHT22;53450;42.584;23.366;2023-03-01T00:11:55;4.46;86.37
66594;DHT22;53450;42.584;23.366;2023-03-01T00:14:20;4.36;86.59
66594;DHT22;53450;42.584;23.366;2023-03-01T00:16:46;4.42;86.48
66594;DHT22;53450;42.584;23.366;2023-03-01T00:19:19;4.42;86.72
66594;DHT22;53450;42.584;23.366;2023-03-01T00:21:45;4.34;86.84
66594;DHT22;53450;42.584;23.366;2023-03-01T00:24:11;4.30;86.77
66594;DHT22;53450;42.584;23.366;2023-03-01T00:26:37;4.33;86.84
66594;DHT22;53450;42.584;23.366;2023-03-01T00:29:03;4.33;86.84
66594;DHT22;53450;42.584;23.366;2023-03-01T00:31:31;4.23;87.04
66594;DHT22;53450;42.584;23.366;2023-03-01T00:33:59;4.30;87.09
66594;DHT22;53450;42.584;23.366;2023-03-01T00:36:27;4.26;87.17
66594;DHT22;53450;42.584;23.366;2023-03-01T00:38:52;4.26;87.23
66594;DHT22;53450;42.584;23.366;2023-03-01T00:41:19;4.22;87.39
66594;DHT22;53450;42.584;23.366;2023-03-01T00:43:45;4.16;87.46
66594;DHT22;53450;42.584;23.366;2023-03-01T00:46:16;4.13;87.51
66594;DHT22;53450;42.584;23.366;2023-03-01T00:48:43;4.15;87.54
66594;DHT22;53450;42.584;23.366;2023-03-01T00:51:12;4.10;86.87
66594;DHT22;53450;42.584;23.366;2023-03-01T00:53:38;4.07;86.62
66594;DHT22;53450;42.584;23.366;2023-03-01T00:56:05;4.23;86.29
66594;DHT22;53450;42.584;23.366;2023-03-01T00:58:32;4.26;86.00
66594;DHT22;53450;42.584;23.366;2023-03-01T01:00:57;4.26;86.07
66594;DHT22;53450;42.584;23.366;2023-03-01T01:03:23;4.22;86.05
66594;DHT22;53450;42.584;23.366;2023-03-01T01:05:53;4.16;86.12
66594;DHT22;53450;42.584;23.366;2023-03-01T01:08:19;4.16;86.16
66594;DHT22;53450;42.584;23.366;2023-03-01T01:10:46;4.15;86.05
66594;DHT22;53450;42.584;23.366;2023-03-01T01:13:12;4.13;85.95
66594;DHT22;53450;42.584;23.366;2023-03-01T01:15:37;4.16;85.59
66594;DHT22;53450;42.584;23.366;2023-03-01T01:18:03;4.19;85.67
66594;DHT22;53450;42.584;23.366;2023-03-01T01:20:28;4.19;85.48
66594;DHT22;53450;42.584;23.366;2023-03-01T01:22:54;4.10;85.76
66594;DHT22;53450;42.584;23.366;2023-03-01T01:25:20;4.10;85.78
66594;DHT22;53450;42.584;23.366;2023-03-01T01:27:45;4.12;85.77
66594;DHT22;53450;42.584;23.366;2023-03-01T01:30:12;4.03;85.94
66594;DHT22;53450;42.584;23.366;2023-03-01T01:32:38;4.13;86.04
66594;DHT22;53450;42.584;23.366;2023-03-01T01:35:04;4.16;85.72
66594;DHT22;53450;42.584;23.366;2023-03-01T01:37:30;4.16;85.51
66594;DHT22;53450;42.584;23.366;2023-03-01T01:39:59;4.12;85.27
66594;DHT22;53450;42.584;23.366;2023-03-01T01:42:26;4.02;85.27
66594;DHT22;53450;42.584;23.366;2023-03-01T01:47:59;3.99;85.18
66594;DHT22;53450;42.584;23.366;2023-03-01T01:50:29;3.99;85.29
66594;DHT22;53450;42.584;23.366;2023-03-01T01:53:05;4.12;85.23
66594;DHT22;53450;42.584;23.366;2023-03-01T01:55:32;4.07;85.08
66594;DHT22;53450;42.584;23.366;2023-03-01T01:58:01;4.07;85.28
66594;DHT22;53450;42.584;23.366;2023-03-01T02:00:29;4.01;85.40
66594;DHT22;53450;42.584;23.366;2023-03-01T02:03:00;4.09;85.58
66594;DHT22;53450;42.584;23.366;2023-03-01T02:05:51;3.98;85.92
66594;DHT22;53450;42.584;23.366;2023-03-01T02:08:45;4.06;85.88
66594;DHT22;53450;42.584;23.366;2023-03-01T02:11:19;3.85;86.20
66594;DHT22;53450;42.584;23.366;2023-03-01T02:13:47;3.68;86.60
66594;DHT22;53450;42.584;23.366;2023-03-01T02:16:16;3.64;86.99
66594;DHT22;53450;42.584;23.366;2023-03-01T02:18:43;3.61;87.32
66594;DHT22;53450;42.584;23.366;2023-03-01T02:23:54;3.51;87.63
66594;DHT22;53450;42.584;23.366;2023-03-01T02:26:42;3.55;87.66
66594;DHT22;53450;42.584;23.366;2023-03-01T02:29:10;3.54;87.65
66594;DHT22;53450;42.584;23.366;2023-03-01T02:31:36;3.53;87.73
66594;DHT22;53450;42.584;23.366;2023-03-01T02:34:09;3.55;87.75
66594;DHT22;53450;42.584;23.366;2023-03-01T02:36:56;3.55;87.61
66594;DHT22;53450;42.584;23.366;2023-03-01T02:39:34;3.57;87.76
66594;DHT22;53450;42.584;23.366;2023-03-01T02:42:02;3.60;87.71
66594;DHT22;53450;42.584;23.366;2023-03-01T02:44:29;3.54;87.78
66594;DHT22;53450;42.584;23.366;2023-03-01T02:46:56;3.58;87.80
66594;DHT22;53450;42.584;23.366;2023-03-01T02:49:32;3.60;87.79
66594;DHT22;53450;42.584;23.366;2023-03-01T02:54:40;3.57;88.11
66594;DHT22;53450;42.584;23.366;2023-03-01T02:57:33;3.64;88.03
66594;DHT22;53450;42.584;23.366;2023-03-01T03:00:29;3.54;88.18
66594;DHT22;53450;42.584;23.366;2023-03-01T03:02:55;3.45;88.42
66594;DHT22;53450;42.584;23.366;2023-03-01T03:05:28;3.43;88.61
66594;DHT22;53450;42.584;23.366;2023-03-01T03:07:57;3.47;88.59
66594;DHT22;53450;42.584;23.366;2023-03-01T03:10:27;3.50;88.66
66594;DHT22;53450;42.584;23.366;2023-03-01T03:12:59;3.41;88.64
66594;DHT22;53450;42.584;23.366;2023-03-01T03:15:25;3.47;88.76
66594;DHT22;53450;42.584;23.366;2023-03-01T03:17:53;3.51;88.79
66594;DHT22;53450;42.584;23.366;2023-03-01T03:20:20;3.60;88.70
66594;DHT22;53450;42.584;23.366;2023-03-01T03:22:50;3.57;88.44
66594;DHT22;53450;42.584;23.366;2023-03-01T03:25:17;3.60;88.05
66594;DHT22;53450;42.584;23.366;2023-03-01T03:27:44;3.64;87.63
66594;DHT22;53450;42.584;23.366;2023-03-01T03:30:19;3.67;87.41
66594;DHT22;53450;42.584;23.366;2023-03-01T03:32:46;3.71;87.10
66594;DHT22;53450;42.584;23.366;2023-03-01T03:35:23;3.75;87.05
66594;DHT22;53450;42.584;23.366;2023-03-01T03:38:17;3.81;86.83
66594;DHT22;53450;42.584;23.366;2023-03-01T03:40:44;3.81;86.78
66594;DHT22;53450;42.584;23.366;2023-03-01T03:43:13;3.82;86.55
66594;DHT22;53450;42.584;23.366;2023-03-01T03:45:39;3.86;86.43
66594;DHT22;53450;42.584;23.366;2023-03-01T03:48:06;3.85;86.45
66594;DHT22;53450;42.584;23.366;2023-03-01T03:50:33;3.88;86.38
66594;DHT22;53450;42.584;23.366;2023-03-01T03:53:04;3.89;86.39
66594;DHT22;53450;42.584;23.366;2023-03-01T03:55:30;3.92;86.19
66594;DHT22;53450;42.584;23.366;2023-03-01T03:58:00;3.94;86.09
66594;DHT22;53450;42.584;23.366;2023-03-01T04:00:36;3.89;86.22
66594;DHT22;53450;42.584;23.366;2023-03-01T04:03:02;3.86;86.13
66594;DHT22;53450;42.584;23.366;2023-03-01T04:05:29;3.96;85.78
66594;DHT22;53450;42.584;23.366;2023-03-01T04:07:55;3.94;85.75
66594;DHT22;53450;42.584;23.366;2023-03-01T04:10:31;3.89;85.69
66594;DHT22;53450;42.584;23.366;2023-03-01T04:12:57;3.94;85.77
66594;DHT22;53450;42.584;23.366;2023-03-01T04:15:24;3.98;85.78
66594;DHT22;53450;42.584;23.366;2023-03-01T04:17:52;4.01;85.70
66594;DHT22;53450;42.584;23.366;2023-03-01T04:20:20;3.91;85.87
66594;DHT22;53450;42.584;23.366;2023-03-01T04:22:58;3.94;86.02
66594;DHT22;53450;42.584;23.366;2023-03-01T04:25:24;3.89;85.95
66594;DHT22;53450;42.584;23.366;2023-03-01T04:27:51;3.86;86.07
66594;DHT22;53450;42.584;23.366;2023-03-01T04:30:17;3.84;86.13
66594;DHT22;53450;42.584;23.366;2023-03-01T04:32:45;3.84;86.36
66594;DHT22;53450;42.584;23.366;2023-03-01T04:35:10;3.86;86.37
66594;DHT22;53450;42.584;23.366;2023-03-01T04:37:36;3.89;86.48
66594;DHT22;53450;42.584;23.366;2023-03-01T04:40:27;3.75;86.71
66594;DHT22;53450;42.584;23.366;2023-03-01T04:43:18;3.79;86.62
66594;DHT22;53450;42.584;23.366;2023-03-01T04:45:43;3.78;86.63
66594;DHT22;53450;42.584;23.366;2023-03-01T04:48:09;3.78;86.62
66594;DHT22;53450;42.584;23.366;2023-03-01T04:50:35;3.65;86.78
66594;DHT22;53450;42.584;23.366;2023-03-01T04:53:00;3.64;87.02
66594;DHT22;53450;42.584;23.366;2023-03-01T04:55:27;3.73;87.17
66594;DHT22;53450;42.584;23.366;2023-03-01T04:57:53;3.65;87.10
66594;DHT22;53450;42.584;23.366;2023-03-01T05:00:19;3.74;87.31
66594;DHT22;53450;42.584;23.366;2023-03-01T05:02:47;3.65;87.34
66594;DHT22;53450;42.584;23.366;2023-03-01T05:05:14;3.60;86.94
66594;DHT22;53450;42.584;23.366;2023-03-01T05:07:40;3.70;86.53
66594;DHT22;53450;42.584;23.366;2023-03-01T05:10:05;3.64;86.39
66594;DHT22;53450;42.584;23.366;2023-03-01T05:12:31;3.61;86.17
66594;DHT22;53450;42.584;23.366;2023-03-01T05:14:56;3.68;86.08
66594;DHT22;53450;42.584;23.366;2023-03-01T05:17:23;3.64;86.22
66594;DHT22;53450;42.584;23.366;2023-03-01T05:19:49;3.65;86.22
66594;DHT22;53450;42.584;23.366;2023-03-01T05:22:15;3.65;85.96
66594;DHT22;53450;42.584;23.366;2023-03-01T05:24:41;3.68;85.82
66594;DHT22;53450;42.584;23.366;2023-03-01T05:27:07;3.65;85.68
66594;DHT22;53450;42.584;23.366;2023-03-01T05:29:33;3.81;85.50
66594;DHT22;53450;42.584;23.366;2023-03-01T05:32:03;3.78;85.32
66594;DHT22;53450;42.584;23.366;2023-03-01T05:34:31;3.85;85.08
66594;DHT22;53450;42.584;23.366;2023-03-01T05:36:57;3.79;84.91
66594;DHT22;53450;42.584;23.366;2023-03-01T05:39:24;3.88;84.86
66594;DHT22;53450;42.584;23.366;2023-03-01T05:41:59;3.98;84.36
66594;DHT22;53450;42.584;23.366;2023-03-01T05:44:49;3.91;84.16
66594;DHT22;53450;42.584;23.366;2023-03-01T05:47:15;3.99;83.77
66594;DHT22;53450;42.584;23.366;2023-03-01T05:49:40;4.01;83.76
66594;DHT22;53450;42.584;23.366;2023-03-01T05:52:07;4.09;83.51
66594;DHT22;53450;42.584;23.366;2023-03-01T05:54:33;4.05;83.26
66594;DHT22;53450;42.584;23.366;2023-03-01T05:56:58;4.06;83.58
66594;DHT22;53450;42.584;23.366;2023-03-01T05:59:24;4.03;83.71
66594;DHT22;53450;42.584;23.366;2023-03-01T06:01:49;4.05;83.67
66594;DHT22;53450;42.584;23.366;2023-03-01T06:04:41;3.96;83.31
66594;DHT22;53450;42.584;23.366;2023-03-01T06:07:32;4.02;83.57
66594;DHT22;53450;42.584;23.366;2023-03-01T06:09:57;3.95;83.53
66594;DHT22;53450;42.584;23.366;2023-03-01T06:12:23;4.05;83.78
66594;DHT22;53450;42.584;23.366;2023-03-01T06:14:48;4.07;83.73
66594;DHT22;53450;42.584;23.366;2023-03-01T06:17:14;4.13;83.30
66594;DHT22;53450;42.584;23.366;2023-03-01T06:19:39;4.09;83.17
66594;DHT22;53450;42.584;23.366;2023-03-01T06:22:05;4.13;83.30
66594;DHT22;53450;42.584;23.366;2023-03-01T06:24:31;4.13;83.31
66594;DHT22;53450;42.584;23.366;2023-03-01T06:26:56;4.13;83.47
66594;DHT22;53450;42.584;23.366;2023-03-01T06:29:22;4.09;83.31
66594;DHT22;53450;42.584;23.366;2023-03-01T06:31:48;4.19;83.56
66594;DHT22;53450;42.584;23.366;2023-03-01T06:34:14;4.26;83.42
66594;DHT22;53450;42.584;23.366;2023-03-01T06:36:40;4.16;83.31
66594;DHT22;53450;42.584;23.366;2023-03-01T06:39:06;4.20;83.24
66594;DHT22;53450;42.584;23.366;2023-03-01T06:41:32;4.16;83.13
66594;DHT22;53450;42.584;23.366;2023-03-01T06:43:59;4.15;82.97
66594;DHT22;53450;42.584;23.366;2023-03-01T06:46:25;4.19;82.34
66594;DHT22;53450;42.584;23.366;2023-03-01T06:48:53;4.29;82.74
66594;DHT22;53450;42.584;23.366;2023-03-01T06:51:18;4.28;82.43
66594;DHT22;53450;42.584;23.366;2023-03-01T06:53:46;4.26;82.62
66594;DHT22;53450;42.584;23.366;2023-03-01T06:56:12;4.20;82.51
66594;DHT22;53450;42.584;23.366;2023-03-01T06:58:38;4.29;82.69
66594;DHT22;53450;42.584;23.366;2023-03-01T07:01:07;4.40;82.72
66594;DHT22;53450;42.584;23.366;2023-03-01T07:03:33;4.39;82.02
66594;DHT22;53450;42.584;23.366;2023-03-01T07:05:58;4.40;82.30
66594;DHT22;53450;42.584;23.366;2023-03-01T07:08:24;4.43;82.59
66594;DHT22;53450;42.584;23.366;2023-03-01T07:10:55;4.42;82.88
66594;DHT22;53450;42.584;23.366;2023-03-01T07:13:21;4.33;83.43
66594;DHT22;53450;42.584;23.366;2023-03-01T07:15:46;4.36;83.29
66594;DHT22;53450;42.584;23.366;2023-03-01T07:18:12;4.34;83.65
66594;DHT22;53450;42.584;23.366;2023-03-01T07:20:38;4.36;83.56
66594;DHT22;53450;42.584;23.366;2023-03-01T07:23:05;4.46;83.96
66594;DHT22;53450;42.584;23.366;2023-03-01T07:25:31;4.53;83.48
66594;DHT22;53450;42.584;23.366;2023-03-01T07:28:23;4.37;84.37
66594;DHT22;53450;42.584;23.366;2023-03-01T07:30:48;4.25;84.55
66594;DHT22;53450;42.584;23.366;2023-03-01T07:33:14;4.16;85.06
66594;DHT22;53450;42.584;23.366;2023-03-01T07:35:39;4.12;85.05
66594;DHT22;53450;42.584;23.366;2023-03-01T07:38:05;4.12;85.00
66594;DHT22;53450;42.584;23.366;2023-03-01T07:40:31;4.16;85.11
66594;DHT22;53450;42.584;23.366;2023-03-01T07:42:57;4.22;85.02
66594;DHT22;53450;42.584;23.366;2023-03-01T07:45:26;4.28;84.81
66594;DHT22;53450;42.584;23.366;2023-03-01T07:47:52;4.17;84.79
66594;DHT22;53450;42.584;23.366;2023-03-01T07:50:18;4.23;84.88
66594;DHT22;53450;42.584;23.366;2023-03-01T07:52:48;4.49;84.97
66594;DHT22;53450;42.584;23.366;2023-03-01T07:55:15;4.65;84.50
66594;DHT22;53450;42.584;23.366;2023-03-01T07:57:41;4.57;84.21
66594;DHT22;53450;42.584;23.366;2023-03-01T08:00:09;4.58;84.31
66594;DHT22;53450;42.584;23.366;2023-03-01T08:02:38;4.58;84.37
66594;DHT22;53450;42.584;23.366;2023-03-01T08:05:05;4.63;83.68
66594;DHT22;53450;42.584;23.366;2023-03-01T08:07:31;4.74;81.98
66594;DHT22;53450;42.584;23.366;2023-03-01T08:09:58;4.81;81.26
66594;DHT22;53450;42.584;23.366;2023-03-01T08:12:23;4.80;81.70
66594;DHT22;53450;42.584;23.366;2023-03-01T08:14:49;4.84;82.12
66594;DHT22;53450;42.584;23.366;2023-03-01T08:17:14;4.84;83.03
66594;DHT22;53450;42.584;23.366;2023-03-01T08:19:40;4.63;83.36
66594;DHT22;53450;42.584;23.366;2023-03-01T08:22:06;4.75;83.47
66594;DHT22;53450;42.584;23.366;2023-03-01T08:24:31;4.80;83.41
66594;DHT22;53450;42.584;23.366;2023-03-01T08:26:57;4.83;83.27
66594;DHT22;53450;42.584;23.366;2023-03-01T08:29:22;4.75;83.12
66594;DHT22;53450;42.584;23.366;2023-03-01T08:31:50;4.61;83.50
66594;DHT22;53450;42.584;23.366;2023-03-01T08:34:17;4.57;84.03
66594;DHT22;53450;42.584;23.366;2023-03-01T08:36:45;4.54;83.89
66594;DHT22;53450;42.584;23.366;2023-03-01T08:39:13;4.53;83.90
66594;DHT22;53450;42.584;23.366;2023-03-01T08:41:39;4.63;83.78
66594;DHT22;53450;42.584;23.366;2023-03-01T08:44:06;4.60;83.69
66594;DHT22;53450;42.584;23.366;2023-03-01T08:46:39;4.73;83.34
66594;DHT22;53450;42.584;23.366;2023-03-01T08:49:07;4.83;83.26
66594;DHT22;53450;42.584;23.366;2023-03-01T08:51:33;4.61;83.13
66594;DHT22;53450;42.584;23.366;2023-03-01T08:54:07;4.67;83.42
66594;DHT22;53450;42.584;23.366;2023-03-01T08:56:33;4.73;83.77
66594;DHT22;53450;42.584;23.366;2023-03-01T08:58:59;4.71;83.83
66594;DHT22;53450;42.584;23.366;2023-03-01T09:01:25;4.73;83.65
66594;DHT22;53450;42.584;23.366;2023-03-01T09:04:18;4.81;83.55
66594;DHT22;53450;42.584;23.366;2023-03-01T09:06:44;4.92;83.34
66594;DHT22;53450;42.584;23.366;2023-03-01T09:09:16;4.85;83.38
66594;DHT22;53450;42.584;23.366;2023-03-01T09:11:43;4.88;83.40
66594;DHT22;53450;42.584;23.366;2023-03-01T09:14:12;4.83;82.91
66594;DHT22;53450;42.584;23.366;2023-03-01T09:16:38;4.52;83.77
66594;DHT22;53450;42.584;23.366;2023-03-01T09:19:05;4.63;84.02
66594;DHT22;53450;42.584;23.366;2023-03-01T09:21:31;4.60;84.14
66594;DHT22;53450;42.584;23.366;2023-03-01T09:23:57;4.73;83.92
66594;DHT22;53450;42.584;23.366;2023-03-01T09:26:24;4.56;83.94
66594;DHT22;53450;42.584;23.366;2023-03-01T09:28:51;4.73;83.77
66594;DHT22;53450;42.584;23.366;2023-03-01T09:31:19;4.57;83.97
66594;DHT22;53450;42.584;23.366;2023-03-01T09:33:50;4.84;83.63
66594;DHT22;53450;42.584;23.366;2023-03-01T09:36:20;4.81;83.89
66594;DHT22;53450;42.584;23.366;2023-03-01T09:38:46;4.75;83.63
66594;DHT22;53450;42.584;23.366;2023-03-01T09:44:10;4.60;83.98
66594;DHT22;53450;42.584;23.366;2023-03-01T09:46:42;4.67;84.03
66594;DHT22;53450;42.584;23.366;2023-03-01T09:49:22;4.92;83.97
66594;DHT22;53450;42.584;23.366;2023-03-01T09:52:19;5.19;82.63
66594;DHT22;53450;42.584;23.366;2023-03-01T09:54:47;5.04;82.72
66594;DHT22;53450;42.584;23.366;2023-03-01T09:57:33;5.15;82.54
66594;DHT22;53450;42.584;23.366;2023-03-01T10:03:17;5.04;82.51
66594;DHT22;53450;42.584;23.366;2023-03-01T10:05:50;5.02;82.82
66594;DHT22;53450;42.584;23.366;2023-03-01T10:08:47;5.23;82.61
66594;DHT22;53450;42.584;23.366;2023-03-01T10:11:26;5.40;81.69
66594;DHT22;53450;42.584;23.366;2023-03-01T10:14:01;5.44;81.56
66594;DHT22;53450;42.584;23.366;2023-03-01T10:19:55;5.22;82.15
66594;DHT22;53450;42.584;23.366;2023-03-01T10:22:28;5.05;82.67
66594;DHT22;53450;42.584;23.366;2023-03-01T10:24:57;5.02;83.27
66594;DHT22;53450;42.584;23.366;2023-03-01T10:27:24;5.13;83.16
66594;DHT22;53450;42.584;23.366;2023-03-01T10:32:38;5.08;83.41
66594;DHT22;53450;42.584;23.366;2023-03-01T10:35:18;5.02;83.67
66594;DHT22;53450;42.584;23.366;2023-03-01T10:38:04;5.02;83.41
66594;DHT22;53450;42.584;23.366;2023-03-01T10:40:32;5.05;83.26
66594;DHT22;53450;42.584;23.366;2023-03-01T10:42:59;5.07;83.48
66594;DHT22;53450;42.584;23.366;2023-03-01T10:48:20;5.35;82.85
66594;DHT22;53450;42.584;23.366;2023-03-01T10:50:51;5.44;82.47
66594;DHT22;53450;42.584;23.366;2023-03-01T10:56:17;5.47;82.19
66594;DHT22;53450;42.584;23.366;2023-03-01T10:58:59;5.23;82.77
66594;DHT22;53450;42.584;23.366;2023-03-01T11:01:32;5.26;82.73
66594;DHT22;53450;42.584;23.366;2023-03-01T11:04:17;5.31;83.06
66594;DHT22;53450;42.584;23.366;2023-03-01T11:06:43;5.05;82.98
66594;DHT22;53450;42.584;23.366;2023-03-01T11:11:44;5.04;83.44
66594;DHT22;53450;42.584;23.366;2023-03-01T11:16:48;5.15;83.27
66594;DHT22;53450;42.584;23.366;2023-03-01T11:19:20;4.87;83.70
66594;DHT22;53450;42.584;23.366;2023-03-01T11:22:18;4.96;83.83
66594;DHT22;53450;42.584;23.366;2023-03-01T11:24:47;4.96;84.05
66594;DHT22;53450;42.584;23.366;2023-03-01T11:27:28;4.84;83.63
66594;DHT22;53450;42.584;23.366;2023-03-01T11:30:41;4.92;83.84
66594;DHT22;53450;42.584;23.366;2023-03-01T11:33:48;4.83;84.17
66594;DHT22;53450;42.584;23.366;2023-03-01T11:38:41;5.12;83.23
66594;DHT22;53450;42.584;23.366;2023-03-01T11:41:14;5.13;83.48
66594;DHT22;53450;42.584;23.366;2023-03-01T11:44:09;5.09;83.37
66594;DHT22;53450;42.584;23.366;2023-03-01T11:47:16;5.33;83.04
66594;DHT22;53450;42.584;23.366;2023-03-01T11:55:17;5.18;83.20
66594;DHT22;53450;42.584;23.366;2023-03-01T12:03:19;5.32;82.45
66594;DHT22;53450;42.584;23.366;2023-03-01T12:05:52;5.23;82.89
66594;DHT22;53450;42.584;23.366;2023-03-01T12:25:37;5.25;83.05
66594;DHT22;53450;42.584;23.366;2023-03-01T12:34:11;5.23;83.04
66594;DHT22;53450;42.584;23.366;2023-03-01T12:51:30;5.43;82.74
66594;DHT22;53450;42.584;23.366;2023-03-01T12:53:58;5.46;82.15
66594;DHT22;53450;42.584;23.366;2023-03-01T12:56:30;5.46;82.02
66594;DHT22;53450;42.584;23.366;2023-03-01T13:01:55;5.69;82.19
66594;DHT22;53450;42.584;23.366;2023-03-01T13:05:02;5.73;80.93
66594;DHT22;53450;42.584;23.366;2023-03-01T13:08:36;5.91;81.20
66594;DHT22;53450;42.584;23.366;2023-03-01T13:11:06;5.97;81.02
66594;DHT22;53450;42.584;23.366;2023-03-01T13:13:35;5.93;81.01
66594;DHT22;53450;42.584;23.366;2023-03-01T13:19:16;5.49;82.45
66594;DHT22;53450;42.584;23.366;2023-03-01T13:21:43;5.43;82.80
66594;DHT22;53450;42.584;23.366;2023-03-01T13:24:41;5.71;82.63
66594;DHT22;53450;42.584;23.366;2023-03-01T13:27:32;5.73;81.68
66594;DHT22;53450;42.584;23.366;2023-03-01T13:35:53;5.87;80.32
66594;DHT22;53450;42.584;23.366;2023-03-01T13:38:45;5.86;79.77
66594;DHT22;53450;42.584;23.366;2023-03-01T13:41:17;5.87;80.16
66594;DHT22;53450;42.584;23.366;2023-03-01T13:44:01;5.97;79.91
66594;DHT22;53450;42.584;23.366;2023-03-01T13:46:29;5.90;79.48
66594;DHT22;53450;42.584;23.366;2023-03-01T13:48:56;5.84;80.76
66594;DHT22;53450;42.584;23.366;2023-03-01T13:51:50;5.87;81.16
66594;DHT22;53450;42.584;23.366;2023-03-01T13:54:47;6.01;80.86
66594;DHT22;53450;42.584;23.366;2023-03-01T13:57:20;5.97;81.04
66594;DHT22;53450;42.584;23.366;2023-03-01T13:59:48;5.66;81.60
66594;DHT22;53450;42.584;23.366;2023-03-01T14:02:17;5.63;82.19
66594;DHT22;53450;42.584;23.366;2023-03-01T14:04:43;5.56;82.34
66594;DHT22;53450;42.584;23.366;2023-03-01T14:07:16;5.56;82.50
66594;DHT22;53450;42.584;23.366;2023-03-01T14:10:08;5.53;82.66
66594;DHT22;53450;42.584;23.366;2023-03-01T14:15:24;5.35;83.45
66594;DHT22;53450;42.584;23.366;2023-03-01T14:18:26;5.84;83.05
66594;DHT22;53450;42.584;23.366;2023-03-01T14:20:55;5.62;82.33
66594;DHT22;53450;42.584;23.366;2023-03-01T14:23:23;5.39;82.99
66594;DHT22;53450;42.584;23.366;2023-03-01T14:25:54;5.16;84.03
66594;DHT22;53450;42.584;23.366;2023-03-01T14:30:59;5.13;84.37
66594;DHT22;53450;42.584;23.366;2023-03-01T14:33:32;5.05;84.72
66594;DHT22;53450;42.584;23.366;2023-03-01T14:36:33;4.96;84.73
66594;DHT22;53450;42.584;23.366;2023-03-01T14:39:00;4.88;85.22
66594;DHT22;53450;42.584;23.366;2023-03-01T14:41:33;4.92;85.22
66594;DHT22;53450;42.584;23.366;2023-03-01T14:44:03;4.81;85.49
66594;DHT22;53450;42.584;23.366;2023-03-01T14:46:35;4.92;85.50
66594;DHT22;53450;42.584;23.366;2023-03-01T14:49:14;4.87;85.25
66594;DHT22;53450;42.584;23.366;2023-03-01T14:51:42;4.73;85.54
66594;DHT22;53450;42.584;23.366;2023-03-01T14:56:50;4.73;85.84
66594;DHT22;53450;42.584;23.366;2023-03-01T14:59:20;4.71;85.82
66594;DHT22;53450;42.584;23.366;2023-03-01T15:01:47;4.77;85.91
66594;DHT22;53450;42.584;23.366;2023-03-01T15:04:13;4.77;85.68
66594;DHT22;53450;42.584;23.366;2023-03-01T15:06:40;4.61;85.89
66594;DHT22;53450;42.584;23.366;2023-03-01T15:09:34;4.68;85.95
66594;DHT22;53450;42.584;23.366;2023-03-01T15:14:53;4.49;86.52
66594;DHT22;53450;42.584;23.366;2023-03-01T15:17:35;4.49;86.76
66594;DHT22;53450;42.584;23.366;2023-03-01T15:20:13;4.43;86.86
66594;DHT22;53450;42.584;23.366;2023-03-01T15:22:44;4.46;86.69
66594;DHT22;53450;42.584;23.366;2023-03-01T15:25:21;4.54;86.61
66594;DHT22;53450;42.584;23.366;2023-03-01T15:28:19;4.67;86.38
66594;DHT22;53450;42.584;23.366;2023-03-01T15:30:46;4.50;86.14
66594;DHT22;53450;42.584;23.366;2023-03-01T15:35:50;4.53;86.43
66594;DHT22;53450;42.584;23.366;2023-03-01T15:38:34;4.52;86.09
66594;DHT22;53450;42.584;23.366;2023-03-01T15:41:06;4.52;85.27
66594;DHT22;53450;42.584;23.366;2023-03-01T15:43:51;4.50;84.91
66594;DHT22;53450;42.584;23.366;2023-03-01T15:46:34;4.50;85.05
66594;DHT22;53450;42.584;23.366;2023-03-01T15:49:05;4.53;85.10
66594;DHT22;53450;42.584;23.366;2023-03-01T15:51:36;4.57;84.94
66594;DHT22;53450;42.584;23.366;2023-03-01T15:54:23;4.63;84.78
66594;DHT22;53450;42.584;23.366;2023-03-01T15:56:49;4.65;84.56
66594;DHT22;53450;42.584;23.366;2023-03-01T15:59:17;4.65;84.46
66594;DHT22;53450;42.584;23.366;2023-03-01T16:01:44;4.54;84.35
66594;DHT22;53450;42.584;23.366;2023-03-01T16:04:11;4.49;84.55
66594;DHT22;53450;42.584;23.366;2023-03-01T16:06:41;4.39;85.05
66594;DHT22;53450;42.584;23.366;2023-03-01T16:09:07;4.44;85.27
66594;DHT22;53450;42.584;23.366;2023-03-01T16:11:35;4.33;85.34
66594;DHT22;53450;42.584;23.366;2023-03-01T16:14:02;4.32;85.43
66594;DHT22;53450;42.584;23.366;2023-03-01T16:16:27;4.42;85.10
66594;DHT22;53450;42.584;23.366;2023-03-01T16:18:53;4.75;85.45
66594;DHT22;53450;42.584;23.366;2023-03-01T16:21:22;4.73;84.02
66594;DHT22;53450;42.584;23.366;2023-03-01T16:23:48;4.60;84.25
66594;DHT22;53450;42.584;23.366;2023-03-01T16:26:14;4.52;84.47
66594;DHT22;53450;42.584;23.366;2023-03-01T16:28:41;4.46;84.70
66594;DHT22;53450;42.584;23.366;2023-03-01T16:31:08;4.44;84.60
66594;DHT22;53450;42.584;23.366;2023-03-01T16:33:34;4.58;84.56
66594;DHT22;53450;42.584;23.366;2023-03-01T16:36:11;4.53;84.38
66594;DHT22;53450;42.584;23.366;2023-03-01T16:38:37;4.52;84.34
66594;DHT22;53450;42.584;23.366;2023-03-01T16:41:04;4.63;84.37
66594;DHT22;53450;42.584;23.366;2023-03-01T16:43:31;4.53;84.30
66594;DHT22;53450;42.584;23.366;2023-03-01T16:45:57;4.52;84.42
66594;DHT22;53450;42.584;23.366;2023-03-01T16:48:24;4.53;84.28
66594;DHT22;53450;42.584;23.366;2023-03-01T16:50:59;4.56;84.25
66594;DHT22;53450;42.584;23.366;2023-03-01T16:53:26;4.57;84.38
66594;DHT22;53450;42.584;23.366;2023-03-01T16:55:56;4.58;84.10
66594;DHT22;53450;42.584;23.366;2023-03-01T16:58:22;4.64;84.10
66594;DHT22;53450;42.584;23.366;2023-03-01T17:00:53;4.56;84.15
66594;DHT22;53450;42.584;23.366;2023-03-01T17:03:21;4.57;84.05
66594;DHT22;53450;42.584;23.366;2023-03-01T17:05:47;4.49;83.87
66594;DHT22;53450;42.584;23.366;2023-03-01T17:08:13;4.50;83.44
66594;DHT22;53450;42.584;23.366;2023-03-01T17:10:38;4.43;83.68
66594;DHT22;53450;42.584;23.366;2023-03-01T17:13:04;4.40;83.70
66594;DHT22;53450;42.584;23.366;2023-03-01T17:15:29;4.40;83.56
66594;DHT22;53450;42.584;23.366;2023-03-01T17:17:55;4.42;83.78
66594;DHT22;53450;42.584;23.366;2023-03-01T17:20:21;4.37;83.76
66594;DHT22;53450;42.584;23.366;2023-03-01T17:23:12;4.37;83.89
66594;DHT22;53450;42.584;23.366;2023-03-01T17:25:42;4.39;83.76
66594;DHT22;53450;42.584;23.366;2023-03-01T17:28:10;4.40;83.65
66594;DHT22;53450;42.584;23.366;2023-03-01T17:30:35;4.37;83.77
66594;DHT22;53450;42.584;23.366;2023-03-01T17:33:01;4.30;83.78
66594;DHT22;53450;42.584;23.366;2023-03-01T17:35:27;4.28;83.56
66594;DHT22;53450;42.584;23.366;2023-03-01T17:37:52;4.22;83.45
66594;DHT22;53450;42.584;23.366;2023-03-01T17:40:18;4.19;83.64
66594;DHT22;53450;42.584;23.366;2023-03-01T17:42:43;4.15;83.78